Time;durP1;ratioP1;P1;durP2;ratioP2;P2;SDS_P1;SDS_P2;PMS_P1;PMS_P2;Temp;Humidity;BMP_temperature;BMP_pressure;BME280_temperature;BME280_humidity;BME280_pressure;Samples;Min_cycle;Max_cycle;Signal;HPM_P1;HPM_P2
2022/07/03 00:02:03;;;;;;;4.60;1.92;;;;;;;18.27;100.00;101747.34;4958038;28;20058;-82
2022/07/03 00:04:31;;;;;;;6.15;2.22;;;;;;;18.23;100.00;101746.50;5006853;28;20278;-80
2022/07/03 00:07:00;;;;;;;3.65;2.00;;;;;;;18.20;100.00;101751.88;4989153;28;20050;-81
2022/07/03 00:09:32;;;;;;;2.95;1.90;;;;;;;18.16;100.00;101747.50;4961623;28;20040;-81
2022/07/03 00:12:01;;;;;;;2.92;1.83;;;;;;;18.12;100.00;101752.00;4985537;28;20054;-81
2022/07/03 00:14:29;;;;;;;3.13;2.35;;;;;;;18.10;100.00;101750.25;4949924;28;20051;-81
2022/07/03 00:17:00;;;;;;;4.40;2.25;;;;;;;18.08;100.00;101752.06;4969725;28;20051;-81
2022/07/03 00:19:28;;;;;;;2.95;2.08;;;;;;;18.07;100.00;101755.63;4983352;28;20054;-79
2022/07/03 00:22:03;;;;;;;3.78;1.88;;;;;;;18.06;100.00;101745.88;4984034;28;20073;-79
2022/07/03 00:24:50;;;;;;;4.32;1.98;;;;;;;18.04;100.00;101743.22;4983909;28;20275;-79
2022/07/03 00:27:21;;;;;;;2.97;2.10;;;;;;;18.04;100.00;101742.34;4997133;28;20047;-79
2022/07/03 00:29:58;;;;;;;3.13;1.75;;;;;;;18.02;100.00;101747.69;4987571;28;20062;-78
2022/07/03 00:32:28;;;;;;;3.70;2.08;;;;;;;18.02;100.00;101752.16;4981355;28;20053;-78
2022/07/03 00:34:57;;;;;;;4.03;2.30;;;;;;;17.99;100.00;101750.38;4989346;28;20057;-79
2022/07/03 00:37:25;;;;;;;5.38;2.58;;;;;;;17.99;100.00;101746.84;4979101;28;20399;-79
2022/07/03 00:39:57;;;;;;;4.55;2.45;;;;;;;17.98;100.00;101748.66;4977764;28;20062;-79
2022/07/03 00:42:27;;;;;;;4.47;2.60;;;;;;;17.96;100.00;101734.44;4995867;28;20038;-79
2022/07/03 00:44:56;;;;;;;;;;;;;;;17.91;100.00;101741.63;4955805;28;20065;-79
2022/07/03 00:47:27;;;;;;;2.25;2.00;;;;;;;17.86;100.00;101733.69;4975178;28;19922;-79
2022/07/03 00:49:59;;;;;;;2.40;2.20;;;;;;;17.81;100.00;101730.16;5000156;28;20050;-79
2022/07/03 00:52:30;;;;;;;4.07;2.60;;;;;;;17.77;100.00;101722.22;4987782;28;20038;-79
2022/07/03 00:55:00;;;;;;;3.42;2.42;;;;;;;17.71;100.00;101729.41;4982968;28;20404;-79
2022/07/03 00:57:30;;;;;;;2.75;2.05;;;;;;;17.65;100.00;101726.78;5000518;28;20507;-79
2022/07/03 01:00:00;;;;;;;3.40;2.50;;;;;;;17.58;100.00;101717.13;4990099;28;20496;-79
2022/07/03 01:02:47;;;;;;;3.92;2.45;;;;;;;17.55;100.00;101717.16;4975793;28;20462;-79
2022/07/03 01:05:34;;;;;;;2.97;2.22;;;;;;;17.50;100.00;101717.22;5013115;28;20054;-79
2022/07/03 01:08:27;;;;;;;3.03;1.90;;;;;;;17.46;100.00;101710.13;4984017;28;20042;-79
2022/07/03 01:11:29;;;;;;;4.70;2.45;;;;;;;17.40;100.00;101709.34;4986054;28;20058;-79
2022/07/03 01:14:23;;;;;;;3.88;2.97;;;;;;;17.34;100.00;101718.28;4987747;28;20054;-78
2022/07/03 01:17:01;;;;;;;3.30;2.50;;;;;;;17.28;100.00;101710.38;4997872;28;20412;-80
2022/07/03 01:19:43;;;;;;;4.63;2.17;;;;;;;17.23;100.00;101705.06;4995218;28;20157;-79
2022/07/03 01:22:34;;;;;;;3.45;2.50;;;;;;;17.18;100.00;101706.91;4973457;28;20049;-79
2022/07/03 01:25:26;;;;;;;5.05;2.50;;;;;;;17.11;100.00;101695.44;4989790;28;20053;-79
2022/07/03 01:28:08;;;;;;;6.70;2.70;;;;;;;17.05;100.00;101695.53;4988619;28;20061;-80
2022/07/03 01:30:41;;;;;;;3.25;2.63;;;;;;;17.02;100.00;101700.00;4965031;28;20183;-79
2022/07/03 01:33:21;;;;;;;4.05;3.08;;;;;;;16.96;100.00;101695.59;4992323;28;20500;-79
2022/07/03 01:36:06;;;;;;;5.38;3.42;;;;;;;16.95;100.00;101688.50;4983955;28;20050;-79
2022/07/03 01:38:40;;;;;;;5.43;3.08;;;;;;;16.90;100.00;101690.31;4980441;28;20077;-79
2022/07/03 01:41:11;;;;;;;3.85;3.28;;;;;;;16.86;100.00;101683.25;4964051;28;20521;-79
2022/07/03 01:43:47;;;;;;;3.65;3.17;;;;;;;16.82;100.00;101685.06;4977083;28;20542;-79
2022/07/03 01:46:28;;;;;;;3.90;3.45;;;;;;;16.80;100.00;101677.97;4979556;28;20038;-78
2022/07/03 01:48:59;;;;;;;7.28;4.20;;;;;;;16.77;100.00;101684.22;4986024;28;20046;-79
2022/07/03 01:51:29;;;;;;;4.35;3.95;;;;;;;16.76;100.00;101677.13;5003097;28;20053;-79
2022/07/03 01:54:00;;;;;;;5.47;3.88;;;;;;;16.73;100.00;101667.41;4990456;28;20041;-79
2022/07/03 01:56:34;;;;;;;6.35;3.88;;;;;;;16.72;100.00;101675.38;4986288;28;20061;-79
2022/07/03 01:59:05;;;;;;;5.05;3.92;;;;;;;16.70;100.00;101670.06;4996401;28;20061;-79
2022/07/03 02:01:44;;;;;;;4.85;3.80;;;;;;;16.67;100.00;101670.13;4989268;28;20287;-80
2022/07/03 02:04:16;;;;;;;6.03;4.18;;;;;;;16.65;100.00;101671.00;4961595;28;20047;-79
2022/07/03 02:07:16;;;;;;;7.20;4.70;;;;;;;16.64;100.00;101674.59;4987662;28;20046;-79
2022/07/03 02:09:51;;;;;;;6.40;4.43;;;;;;;16.61;100.00;101677.25;4983553;28;20420;-78
2022/07/03 02:12:33;;;;;;;4.68;4.18;;;;;;;16.59;100.00;101674.59;4987836;28;20038;-79
2022/07/03 02:15:08;;;;;;;8.90;4.43;;;;;;;16.60;100.00;101670.16;4989533;28;20043;-79
2022/07/03 02:17:48;;;;;;;4.45;4.03;;;;;;;16.59;100.00;101665.75;4999347;28;20091;-79
2022/07/03 02:20:29;;;;;;;4.78;4.10;;;;;;;16.55;100.00;101667.53;4956225;28;20042;-79
2022/07/03 02:23:02;;;;;;;4.07;3.67;;;;;;;16.50;100.00;101669.34;4983023;28;20057;-80
2022/07/03 02:25:36;;;;;;;5.32;4.25;;;;;;;16.46;100.00;101656.97;4989686;28;20610;-79
2022/07/03 02:28:37;;;;;;;7.95;4.40;;;;;;;16.44;100.00;101666.75;4993538;28;20118;-79
2022/07/03 02:31:09;;;;;;;6.22;4.70;;;;;;;16.42;100.00;101660.56;4987892;28;20217;-79
2022/07/03 02:33:41;;;;;;;9.45;4.75;;;;;;;16.41;100.00;101665.00;4991899;28;20030;-79
2022/07/03 02:36:11;;;;;;;6.70;4.25;;;;;;;16.41;100.00;101664.09;4963751;28;20414;-79
2022/07/03 02:38:44;;;;;;;6.20;4.28;;;;;;;16.40;100.00;101667.69;4991776;28;20054;-79
2022/07/03 02:41:19;;;;;;;5.22;4.60;;;;;;;16.40;100.00;101673.00;4996702;28;20046;-80
2022/07/03 02:44:16;;;;;;;7.03;4.50;;;;;;;16.37;100.00;101663.28;5008771;28;20240;-79
2022/07/03 02:47:07;;;;;;;9.10;4.45;;;;;;;16.34;100.00;101658.84;4991887;28;20053;-80
2022/07/03 02:50:10;;;;;;;6.97;4.45;;;;;;;16.33;100.00;101667.75;4997930;28;20137;-80
2022/07/03 02:53:14;;;;;;;7.35;4.53;;;;;;;16.32;100.00;101651.78;4991420;28;20077;-79
2022/07/03 02:55:44;;;;;;;;;;;;;;;16.30;100.00;101656.22;4974156;28;20078;-79
2022/07/03 02:58:50;;;;;;;5.72;4.68;;;;;;;16.28;100.00;101658.91;4990435;28;19922;-79
2022/07/03 03:01:34;;;;;;;6.95;5.07;;;;;;;16.27;100.00;101650.94;4980290;28;20054;-80
2022/07/03 03:04:14;;;;;;;5.53;3.80;;;;;;;16.26;100.00;101655.38;4984420;28;20041;-79
2022/07/03 03:06:54;;;;;;;5.75;4.53;;;;;;;16.27;100.00;101654.47;4954655;28;20057;-79
2022/07/03 03:09:31;;;;;;;7.53;4.53;;;;;;;16.25;100.00;101650.94;4996148;28;20046;-79
2022/07/03 03:12:01;;;;;;;5.93;4.45;;;;;;;16.23;100.00;101650.06;4996344;28;20042;-79
2022/07/03 03:14:41;;;;;;;4.20;3.80;;;;;;;16.21;100.00;101649.19;4984642;28;20054;-79
2022/07/03 03:17:18;;;;;;;4.85;4.35;;;;;;;16.20;100.00;101649.19;4987799;28;20049;-80
2022/07/03 03:19:54;;;;;;;4.25;3.85;;;;;;;16.18;100.00;101652.78;4989316;28;20067;-79
2022/07/03 03:22:57;;;;;;;6.20;5.28;;;;;;;16.17;100.00;101640.34;4967538;28;20049;-80
2022/07/03 03:25:25;;;;;;;4.70;4.40;;;;;;;16.16;100.00;101643.03;4977569;28;20507;-80
2022/07/03 03:27:55;;;;;;;5.68;4.90;;;;;;;16.17;100.00;101652.78;4980218;28;20511;-79
2022/07/03 03:30:23;;;;;;;6.97;5.57;;;;;;;16.16;100.00;101653.66;4987292;28;20534;-79
2022/07/03 03:32:52;;;;;;;6.55;5.93;;;;;;;16.14;100.00;101647.47;4971697;28;20047;-79
2022/07/03 03:35:20;;;;;;;6.68;6.03;;;;;;;16.12;100.00;101646.59;5017795;28;20058;-79
2022/07/03 03:37:49;;;;;;;9.18;6.25;;;;;;;16.13;100.00;101643.94;4994528;28;20147;-79
2022/07/03 03:40:18;;;;;;;7.18;6.28;;;;;;;16.13;100.00;101646.59;4968065;28;20035;-79
2022/07/03 03:42:47;;;;;;;9.25;7.07;;;;;;;16.13;100.00;101661.66;4976057;28;20236;-79
2022/07/03 03:45:15;;;;;;;9.48;6.65;;;;;;;16.11;100.00;101659.03;4986505;28;20407;-79
2022/07/03 03:47:44;;;;;;;7.35;6.25;;;;;;;16.08;100.00;101655.50;4995021;28;20062;-79
2022/07/03 03:50:13;;;;;;;8.02;6.85;;;;;;;16.06;100.00;101663.47;4993863;28;20042;-80
2022/07/03 03:52:42;;;;;;;7.47;6.78;;;;;;;16.04;100.00;101675.03;4964584;28;20638;-79
2022/07/03 03:55:10;;;;;;;6.82;5.88;;;;;;;16.01;100.00;101665.31;4939861;28;20050;-79
2022/07/03 03:57:39;;;;;;;6.90;6.20;;;;;;;15.98;100.00;101668.84;4988534;28;20623;-79
2022/07/03 04:00:08;;;;;;;9.07;6.18;;;;;;;15.97;100.00;101666.19;4996039;28;20504;-79
2022/07/03 04:02:42;;;;;;;6.80;6.10;;;;;;;15.97;100.00;101664.44;4983043;28;20041;-79
2022/07/03 04:05:12;;;;;;;7.32;6.72;;;;;;;15.96;100.00;101660.00;5002381;28;20416;-80
2022/07/03 04:07:40;;;;;;;7.13;6.43;;;;;;;15.95;100.00;101662.66;4987051;28;20042;-80
2022/07/03 04:10:09;;;;;;;8.00;7.30;;;;;;;15.96;100.00;101657.34;5008599;28;20046;-80
2022/07/03 04:12:37;;;;;;;6.78;6.18;;;;;;;15.96;100.00;101652.03;4921638;28;20330;-80
2022/07/03 04:15:06;;;;;;;8.55;6.65;;;;;;;15.98;100.00;101657.34;4990007;28;20038;-80
2022/07/03 04:17:35;;;;;;;8.85;6.05;;;;;;;16.00;100.00;101655.56;4985641;28;20073;-80
2022/07/03 04:20:04;;;;;;;7.35;6.65;;;;;;;16.02;100.00;101645.78;5003548;28;20045;-80
2022/07/03 04:22:33;;;;;;;7.28;6.20;;;;;;;16.07;100.00;101643.13;4991605;28;20078;-80
2022/07/03 04:25:01;;;;;;;7.68;6.10;;;;;;;16.13;100.00;101648.38;4971212;28;20061;-78
2022/07/03 04:27:30;;;;;;;6.30;5.80;;;;;;;16.22;100.00;101652.72;4951662;28;20430;-78
2022/07/03 04:30:18;;;;;;;6.03;5.45;;;;;;;16.24;100.00;101654.50;4965064;28;20373;-81
2022/07/03 04:32:47;;;;;;;6.50;5.90;;;;;;;16.27;100.00;101650.94;5001164;28;20043;-79
2022/07/03 04:35:16;;;;;;;7.05;6.32;;;;;;;16.36;100.00;101649.06;4967347;28;20369;-79
2022/07/03 04:37:45;;;;;;;5.88;5.38;;;;;;;16.42;100.00;101641.94;5012769;28;20552;-79
2022/07/03 04:40:14;;;;;;;8.07;6.22;;;;;;;16.48;100.00;101639.22;4985712;28;20118;-79
2022/07/03 04:42:43;;;;;;;7.40;5.85;;;;;;;16.51;100.00;101636.56;4934200;28;20208;-79
2022/07/03 04:45:12;;;;;;;8.75;5.85;;;;;;;16.99;100.00;101649.41;4974964;28;20053;-79
2022/07/03 04:47:40;;;;;;;4.82;4.45;;;;;;;17.70;100.00;101645.00;4988877;28;20046;-79
2022/07/03 04:50:08;;;;;;;4.72;4.28;;;;;;;18.58;100.00;101642.78;5019765;28;20051;-79
2022/07/03 04:52:37;;;;;;;4.20;3.80;;;;;;;19.24;100.00;101654.94;4988190;28;20353;-79
2022/07/03 04:55:07;;;;;;;5.22;3.90;;;;;;;19.87;100.00;101645.63;5005293;28;20061;-79
2022/07/03 04:57:36;;;;;;;;;;;;;;;20.19;100.00;101650.22;4924003;28;20030;-78
2022/07/03 05:00:06;;;;;;;4.90;3.60;;;;;;;20.78;100.00;101652.31;4968820;28;19929;-79
2022/07/03 05:02:34;;;;;;;5.53;3.45;;;;;;;21.04;100.00;101656.09;5018854;28;20057;-79
2022/07/03 05:05:03;;;;;;;3.58;3.28;;;;;;;21.03;100.00;101648.97;5018162;28;20051;-79
2022/07/03 05:07:32;;;;;;;3.28;2.97;;;;;;;21.55;100.00;101644.81;5020866;28;20050;-79
2022/07/03 05:10:00;;;;;;;3.75;3.33;;;;;;;22.06;100.00;101645.03;4993659;28;20058;-80
2022/07/03 05:12:30;;;;;;;3.37;2.67;;;;;;;22.61;100.00;101653.09;4987535;28;20149;-79
2022/07/03 05:14:58;;;;;;;5.70;2.90;;;;;;;22.92;96.80;101658.28;4990403;28;20153;-79
2022/07/03 05:17:26;;;;;;;3.22;2.92;;;;;;;22.73;95.67;101655.38;4981454;28;20380;-79
2022/07/03 05:22:42;;;;;;;5.60;2.88;;;;;;;21.94;94.62;101657.91;4995950;28;20455;-79
2022/07/03 05:25:10;;;;;;;3.42;3.13;;;;;;;21.52;94.79;101654.75;4997725;28;20049;-79
2022/07/03 05:27:39;;;;;;;3.42;2.88;;;;;;;21.12;95.41;101664.78;4961694;28;20526;-79
2022/07/03 05:30:10;;;;;;;5.85;2.92;;;;;;;20.74;96.06;101665.84;4990146;28;20050;-79
2022/07/03 05:32:39;;;;;;;4.35;3.25;;;;;;;20.42;97.94;101657.66;4995034;28;20046;-79
2022/07/03 05:35:08;;;;;;;4.53;3.85;;;;;;;20.39;99.38;101662.22;4997471;28;20037;-79
2022/07/03 05:37:38;;;;;;;3.08;2.88;;;;;;;20.91;100.00;101662.72;4995760;28;20046;-79
2022/07/03 05:40:07;;;;;;;4.10;3.08;;;;;;;21.72;99.15;101660.41;4965836;28;20035;-80
2022/07/03 05:42:36;;;;;;;3.65;2.92;;;;;;;22.62;96.82;101655.72;4955394;28;20285;-80
2022/07/03 05:45:05;;;;;;;3.65;3.17;;;;;;;23.44;94.87;101644.75;4991369;28;20061;-80
2022/07/03 05:47:33;;;;;;;3.95;2.30;;;;;;;23.79;90.18;101647.94;4981517;28;20164;-80
2022/07/03 05:50:02;;;;;;;4.45;2.70;;;;;;;23.67;87.87;101652.84;4991215;28;20050;-81
2022/07/03 05:52:30;;;;;;;3.95;2.42;;;;;;;23.39;88.02;101655.69;4996285;28;20171;-79
2022/07/03 05:54:59;;;;;;;5.18;2.85;;;;;;;23.04;87.86;101659.69;4989774;28;20369;-79
2022/07/03 05:57:27;;;;;;;4.60;2.72;;;;;;;22.89;87.64;101658.38;4986678;28;20043;-79
2022/07/03 06:00:02;;;;;;;4.45;2.97;;;;;;;22.83;87.43;101658.59;4956985;28;20058;-79
2022/07/03 06:02:32;;;;;;;3.10;2.80;;;;;;;22.72;87.64;101667.03;4976005;28;20034;-78
2022/07/03 06:05:01;;;;;;;3.88;2.95;;;;;;;22.55;87.33;101660.44;4968017;28;20053;-78
2022/07/03 06:07:29;;;;;;;4.15;2.58;;;;;;;22.31;87.48;101661.28;4984284;28;20050;-79
2022/07/03 06:09:58;;;;;;;3.60;3.08;;;;;;;22.06;89.63;101661.13;4990120;28;20046;-79
2022/07/03 06:12:26;;;;;;;3.83;2.88;;;;;;;21.79;89.68;101659.25;4987931;28;20058;-79
2022/07/03 06:14:55;;;;;;;4.85;2.65;;;;;;;21.55;90.50;101665.38;4961813;28;20404;-80
2022/07/03 06:17:29;;;;;;;4.85;2.88;;;;;;;21.39;91.50;101667.59;4973242;28;20030;-80
2022/07/03 06:19:57;;;;;;;3.08;2.80;;;;;;;21.21;92.26;101667.22;4993827;28;20102;-79
2022/07/03 06:22:26;;;;;;;3.80;3.40;;;;;;;21.08;93.05;101678.31;4998712;28;20039;-80
2022/07/03 06:24:55;;;;;;;4.88;2.65;;;;;;;21.00;92.90;101674.06;4996437;28;20047;-79
2022/07/03 06:27:23;;;;;;;7.43;2.45;;;;;;;20.86;90.94;101675.34;4992124;28;20041;-79
2022/07/03 06:29:52;;;;;;;4.65;2.15;;;;;;;20.78;90.18;101673.75;4975910;28;20054;-80
2022/07/03 06:32:20;;;;;;;2.78;2.05;;;;;;;20.76;90.23;101680.06;4994779;28;20034;-80
2022/07/03 06:34:49;;;;;;;2.25;2.05;;;;;;;20.69;89.59;101682.00;4988406;28;20050;-79
2022/07/03 06:37:18;;;;;;;5.85;2.55;;;;;;;20.61;89.02;101684.88;4989194;28;20042;-79
2022/07/03 06:39:47;;;;;;;2.92;2.13;;;;;;;20.59;89.60;101684.00;4993108;28;20042;-79
2022/07/03 06:42:16;;;;;;;4.22;2.13;;;;;;;20.66;89.45;101687.44;4987829;28;20050;-79
2022/07/03 06:44:47;;;;;;;3.05;1.80;;;;;;;20.65;89.73;101693.72;4957057;28;20069;-79
2022/07/03 06:47:19;;;;;;;2.92;2.30;;;;;;;20.62;89.25;101686.66;4978062;28;20111;-79
2022/07/03 06:49:48;;;;;;;4.68;2.83;;;;;;;20.62;89.06;101696.47;4976184;28;20074;-79
2022/07/03 06:52:16;;;;;;;6.72;2.60;;;;;;;20.68;89.92;101695.44;4970546;28;20050;-79
2022/07/03 06:54:45;;;;;;;4.35;2.35;;;;;;;20.85;90.61;101685.19;5017844;28;20038;-79
2022/07/03 06:57:14;;;;;;;3.17;2.35;;;;;;;21.03;90.55;101684.66;5002630;28;20046;-80
2022/07/03 06:59:42;;;;;;;4.10;2.20;;;;;;;21.17;89.72;101687.00;4957462;28;20153;-79
2022/07/03 07:02:14;;;;;;;5.47;2.38;;;;;;;21.26;88.84;101682.28;5002744;28;20053;-79
2022/07/03 07:04:42;;;;;;;1.75;1.65;;;;;;;21.29;87.33;101684.88;4975729;28;20041;-79
2022/07/03 07:07:11;;;;;;;4.53;1.90;;;;;;;21.22;87.58;101689.53;4983765;28;20043;-79
2022/07/03 07:09:39;;;;;;;3.65;1.90;;;;;;;21.19;87.68;101682.47;5008001;28;20556;-79
2022/07/03 07:12:08;;;;;;;2.67;1.45;;;;;;;21.30;87.37;101690.19;4988899;28;20045;-79
2022/07/03 07:14:37;;;;;;;2.92;1.40;;;;;;;21.38;86.63;101690.00;4955887;28;20112;-79
2022/07/03 07:17:05;;;;;;;1.77;1.10;;;;;;;21.42;85.21;101686.28;4989801;28;20050;-79
2022/07/03 07:19:34;;;;;;;2.03;1.17;;;;;;;21.48;84.53;101687.97;4985486;28;20465;-79
2022/07/03 07:22:02;;;;;;;2.10;1.10;;;;;;;21.59;85.02;101693.88;4984225;28;20495;-79
2022/07/03 07:24:32;;;;;;;2.83;1.10;;;;;;;21.78;84.38;101695.09;4991397;28;20339;-79
2022/07/03 07:27:00;;;;;;;1.63;1.00;;;;;;;21.85;83.60;101690.41;4985944;28;20050;-79
2022/07/03 07:29:29;;;;;;;3.47;1.20;;;;;;;21.98;82.80;101694.47;4985932;28;20064;-78
2022/07/03 07:31:57;;;;;;;2.90;1.25;;;;;;;22.04;82.04;101695.19;4958161;28;20521;-79
2022/07/03 07:34:26;;;;;;;3.05;1.10;;;;;;;22.08;81.29;101697.75;4976867;28;20045;-78
2022/07/03 07:37:03;;;;;;;2.45;1.10;;;;;;;22.08;81.22;101697.75;5009518;28;20053;-80
2022/07/03 07:39:32;;;;;;;2.05;1.40;;;;;;;21.98;80.52;101710.59;4983321;28;20043;-79
2022/07/03 07:42:00;;;;;;;2.50;1.02;;;;;;;21.86;80.70;101712.75;4996020;28;20046;-80
2022/07/03 07:44:30;;;;;;;3.85;1.15;;;;;;;21.76;81.50;101720.22;4988744;28;20076;-79
2022/07/03 07:46:59;;;;;;;0.90;0.80;;;;;;;21.65;81.39;101717.84;4972446;28;20503;-79
2022/07/03 07:49:27;;;;;;;2.53;0.90;;;;;;;21.50;80.70;101724.50;4985870;28;20057;-79
2022/07/03 07:51:55;;;;;;;3.85;1.25;;;;;;;21.61;81.54;101724.22;5009802;28;20146;-78
2022/07/03 07:54:24;;;;;;;2.88;1.00;;;;;;;21.58;81.09;101719.81;4986749;28;20371;-80
2022/07/03 07:56:53;;;;;;;1.77;1.05;;;;;;;21.56;80.96;101720.78;4987452;28;20540;-79
2022/07/03 07:59:21;;;;;;;2.60;1.83;;;;;;;21.45;80.82;101728.25;4974344;28;20047;-79
2022/07/03 08:07:24;;;;;;;1.45;1.35;;;;;;;21.13;83.41;101728.16;4955122;28;20042;-79
2022/07/03 08:09:53;;;;;;;3.78;1.35;;;;;;;21.01;84.22;101723.16;4992626;28;20589;-79
2022/07/03 08:12:21;;;;;;;2.05;1.40;;;;;;;20.92;85.10;101724.25;5021329;28;20406;-79
2022/07/03 08:14:50;;;;;;;2.17;1.88;;;;;;;20.87;86.38;101731.56;4987781;28;20276;-79
2022/07/03 08:17:18;;;;;;;5.28;1.52;;;;;;;20.87;87.97;101725.31;5005667;28;20048;-81
2022/07/03 08:19:51;;;;;;;2.28;1.52;;;;;;;21.01;89.13;101724.03;4967468;28;20052;-79
2022/07/03 08:22:19;;;;;;;3.80;1.60;;;;;;;21.19;87.16;101727.13;4988137;28;20038;-79
2022/07/03 08:24:48;;;;;;;1.83;1.27;;;;;;;21.26;85.94;101723.34;4997586;28;20046;-79
2022/07/03 08:27:19;;;;;;;2.90;1.42;;;;;;;21.33;85.86;101724.09;4994303;28;20050;-79
2022/07/03 08:29:52;;;;;;;2.88;1.00;;;;;;;21.43;85.46;101723.75;4978481;28;20051;-79
2022/07/03 08:32:20;;;;;;;3.85;1.38;;;;;;;21.51;84.56;101728.97;4981041;28;20050;-80
2022/07/03 08:34:53;;;;;;;4.25;1.20;;;;;;;21.53;82.71;101718.19;4968488;28;20042;-78
2022/07/03 08:37:21;;;;;;;1.05;0.90;;;;;;;21.58;81.78;101717.13;4963500;28;20042;-78
2022/07/03 08:39:51;;;;;;;1.92;1.02;;;;;;;21.62;81.36;101723.28;4983805;28;20244;-78
2022/07/03 08:42:22;;;;;;;2.55;1.17;;;;;;;21.57;80.99;101723.44;4984105;28;20050;-78
2022/07/03 08:44:54;;;;;;;2.47;1.33;;;;;;;21.54;81.26;101719.94;4994092;28;20483;-78
2022/07/03 08:47:25;;;;;;;3.17;1.30;;;;;;;21.49;81.58;101729.91;4976031;28;20034;-78
2022/07/03 08:49:56;;;;;;;1.42;1.13;;;;;;;21.54;81.58;101723.50;4954720;28;20586;-78
2022/07/03 08:52:26;;;;;;;3.13;1.15;;;;;;;21.69;81.91;101718.63;4966021;28;21107;-79
2022/07/03 08:54:54;;;;;;;2.45;1.00;;;;;;;21.85;79.89;101717.22;4974356;28;20034;-79
2022/07/03 08:57:24;;;;;;;1.75;1.48;;;;;;;21.98;78.94;101724.00;4998486;28;20228;-79
2022/07/03 08:59:54;;;;;;;3.70;1.30;;;;;;;22.05;79.62;101721.13;5009181;28;20061;-79
2022/07/03 09:02:24;;;;;;;4.30;1.47;;;;;;;22.14;80.03;101713.66;4997019;28;20319;-79
2022/07/03 09:04:54;;;;;;;4.00;1.33;;;;;;;22.17;78.92;101727.00;4947706;28;20298;-79
2022/07/03 09:07:24;;;;;;;1.83;1.27;;;;;;;22.16;79.09;101724.34;4972665;28;20050;-79
2022/07/03 09:09:54;;;;;;;3.10;1.10;;;;;;;22.20;79.45;101720.63;5014315;28;20039;-79
2022/07/03 09:12:23;;;;;;;3.50;1.40;;;;;;;22.25;78.66;101726.78;5009703;28;20469;-78
2022/07/03 09:14:52;;;;;;;1.45;1.30;;;;;;;22.30;78.36;101729.31;4994176;28;20049;-78
2022/07/03 09:17:21;;;;;;;2.05;1.08;;;;;;;22.30;78.91;101724.81;4983872;28;20050;-79
2022/07/03 09:19:50;;;;;;;2.08;1.23;;;;;;;22.39;78.67;101718.28;4985630;28;20067;-78
2022/07/03 09:22:33;;;;;;;2.35;1.48;;;;;;;22.46;75.50;101713.59;4964072;28;20042;-79
2022/07/03 09:25:07;;;;;;;4.07;1.10;;;;;;;22.45;76.10;101725.25;4984699;28;20038;-79
2022/07/03 09:27:38;;;;;;;2.70;1.10;;;;;;;22.50;78.41;101723.31;4985640;28;20465;-78
2022/07/03 09:30:10;;;;;;;2.90;2.00;;;;;;;22.68;78.68;101729.88;4978136;28;20046;-81
2022/07/03 09:32:48;;;;;;;4.85;1.40;;;;;;;22.86;79.19;101723.88;4987348;28;20061;-80
2022/07/03 09:35:19;;;;;;;1.98;1.30;;;;;;;22.87;74.83;101728.34;4990527;28;20407;-82
2022/07/03 09:37:59;;;;;;;2.15;1.40;;;;;;;22.77;73.57;101730.44;4976289;28;20054;-83
2022/07/03 09:40:51;;;;;;;2.15;1.30;;;;;;;22.70;74.31;101728.91;4993857;28;20569;-81
2022/07/03 09:43:31;;;;;;;2.87;1.23;;;;;;;22.62;74.80;101730.06;4949051;28;20046;-81
2022/07/03 09:46:02;;;;;;;5.05;1.50;;;;;;;22.68;76.08;101727.19;4978597;28;20795;-82
2022/07/03 09:48:33;;;;;;;1.75;1.20;;;;;;;22.81;76.60;101723.13;4967388;28;20038;-81
2022/07/03 09:51:25;;;;;;;5.45;1.42;;;;;;;22.94;71.84;101719.09;4949514;28;20061;-81
2022/07/03 09:53:58;;;;;;;5.45;1.10;;;;;;;23.01;72.70;101716.22;4981477;28;20065;-81
2022/07/03 09:56:30;;;;;;;2.45;1.35;;;;;;;23.04;73.75;101718.81;4986037;28;20058;-81
2022/07/03 09:59:13;;;;;;;3.45;1.10;;;;;;;23.15;70.21;101724.69;4983550;28;20038;-81
2022/07/03 10:01:45;;;;;;;0.93;0.80;;;;;;;23.14;70.19;101729.19;4980083;28;20034;-82
2022/07/03 10:04:21;;;;;;;2.90;1.00;;;;;;;23.15;70.40;101733.63;4993749;28;20050;-82
2022/07/03 10:06:49;;;;;;;3.70;1.10;;;;;;;23.16;70.27;101731.84;4974926;28;20534;-81
2022/07/03 10:09:27;;;;;;;;;;;;;;;23.19;68.70;101733.53;4966381;28;20050;-81
2022/07/03 10:11:58;;;;;;;1.55;0.98;;;;;;;23.14;70.06;101722.94;5013297;28;19921;-82
2022/07/03 10:14:31;;;;;;;2.17;1.00;;;;;;;23.19;70.50;101730.84;4985176;28;20085;-80
2022/07/03 10:17:01;;;;;;;4.03;0.80;;;;;;;23.28;69.52;101733.19;4977795;28;20050;-81
2022/07/03 10:19:37;;;;;;;0.90;0.80;;;;;;;23.35;67.20;101730.22;4987292;28;20042;-81
2022/07/03 10:22:18;;;;;;;0.80;0.75;;;;;;;23.50;66.02;101730.63;4984366;28;20065;-82
2022/07/03 10:24:47;;;;;;;2.55;0.88;;;;;;;23.65;65.36;101724.66;4948987;28;20500;-81
2022/07/03 10:27:16;;;;;;;2.20;0.80;;;;;;;23.73;65.23;101729.75;4984878;28;21027;-82
2022/07/03 10:29:47;;;;;;;1.58;1.00;;;;;;;23.88;66.18;101728.31;5013873;28;20046;-81
2022/07/03 10:32:16;;;;;;;10.40;0.80;;;;;;;24.01;62.90;101726.03;4995983;28;20066;-81
2022/07/03 10:34:45;;;;;;;0.60;0.60;;;;;;;24.07;61.33;101733.88;4967390;28;20038;-81
2022/07/03 10:37:21;;;;;;;2.60;0.73;;;;;;;24.10;59.89;101731.03;4982509;28;20140;-81
2022/07/03 10:46:12;;;;;;;2.03;0.90;;;;;;;24.39;58.03;101726.31;4982891;28;20063;-82
2022/07/03 10:49:10;;;;;;;1.40;0.82;;;;;;;24.45;56.62;101732.31;4982460;28;20043;-80
2022/07/03 10:51:45;;;;;;;2.80;0.68;;;;;;;24.43;56.69;101718.03;4977232;28;20054;-80
2022/07/03 10:54:28;;;;;;;1.27;0.80;;;;;;;24.39;54.50;101726.31;4968695;28;20060;-80
2022/07/03 10:57:02;;;;;;;1.17;0.80;;;;;;;24.36;56.46;101715.66;5011262;28;20431;-80
2022/07/03 11:02:31;;;;;;;0.60;0.60;;;;;;;24.49;56.04;101712.38;4990794;28;20049;-81
2022/07/03 11:05:03;;;;;;;2.33;0.80;;;;;;;24.61;56.96;101713.75;4981717;28;20053;-81
2022/07/03 11:08:02;;;;;;;4.60;0.70;;;;;;;24.67;56.54;101715.31;4966455;28;20047;-81
2022/07/03 11:10:32;;;;;;;1.38;0.73;;;;;;;24.77;56.90;101713.09;4953135;28;20318;-80
2022/07/03 11:13:15;;;;;;;0.63;0.60;;;;;;;24.77;56.67;101713.09;4986544;28;20422;-80
2022/07/03 11:15:49;;;;;;;1.33;0.80;;;;;;;24.73;58.34;101717.72;4979159;28;20459;-82
2022/07/03 11:18:17;;;;;;;0.98;0.70;;;;;;;24.72;57.72;101710.56;4984236;28;20407;-81
2022/07/03 11:20:49;;;;;;;3.35;0.70;;;;;;;24.78;57.20;101715.69;5010351;28;20817;-82
2022/07/03 11:23:33;;;;;;;1.27;0.70;;;;;;;24.94;56.73;101712.38;4984006;28;20050;-80
2022/07/03 11:26:20;;;;;;;1.70;0.70;;;;;;;24.88;56.53;101708.13;4957472;28;20061;-80
2022/07/03 11:28:53;;;;;;;0.90;0.60;;;;;;;24.69;57.42;101710.72;4978921;28;20066;-81
2022/07/03 11:31:24;;;;;;;1.45;0.70;;;;;;;24.54;57.86;101714.03;4978154;28;20408;-81
2022/07/03 11:33:55;;;;;;;0.60;0.60;;;;;;;24.40;58.94;101703.81;4985819;28;20062;-81
2022/07/03 11:36:30;;;;;;;2.58;0.95;;;;;;;24.38;58.80;101708.38;4982554;28;20050;-82
2022/07/03 11:38:58;;;;;;;1.45;1.00;;;;;;;24.44;58.82;101708.13;4969155;28;20046;-81
2022/07/03 11:41:34;;;;;;;1.15;0.70;;;;;;;24.59;57.43;101691.34;4944682;28;20061;-81
2022/07/03 11:44:05;;;;;;;1.45;0.60;;;;;;;24.64;57.49;101700.13;4984843;28;20062;-81
2022/07/03 11:46:36;;;;;;;0.73;0.73;;;;;;;24.66;58.25;101698.22;4984611;28;20288;-81
2022/07/03 11:49:05;;;;;;;2.10;0.77;;;;;;;24.65;57.66;101701.88;4985716;28;20046;-81
2022/07/03 11:51:35;;;;;;;1.50;0.90;;;;;;;24.64;58.53;101704.66;4978436;28;20041;-83
2022/07/03 11:54:04;;;;;;;2.35;0.93;;;;;;;24.82;56.95;101700.28;4952177;28;20046;-82
2022/07/03 11:56:35;;;;;;;0.63;0.50;;;;;;;24.91;55.02;101702.56;4951536;28;20054;-82
2022/07/03 11:59:05;;;;;;;1.73;0.73;;;;;;;24.92;55.59;101700.78;4999479;28;20054;-82
2022/07/03 12:01:36;;;;;;;4.80;1.77;;;;;;;24.72;63.46;101705.19;4976357;28;20042;-81
2022/07/03 12:04:22;;;;;;;4.43;1.48;;;;;;;24.58;70.95;101711.16;4992754;28;20101;-80
2022/07/03 12:07:01;;;;;;;5.40;1.60;;;;;;;24.37;71.87;101720.97;4981792;28;20061;-81